Angulos, Argentina
Current Conditions -  °F | °C
As of 7:00 PM on Wednesday 28 Jan 2015 (Local Time) from SANT Reporting Station
Scattered Clouds Scattered Clouds  
Wind Chill: 79°   Ceiling: Unl
Heat Index: 82°   Visibility: 6mi
Dew Point: 72°   Wind: 12mph
Humidity: 78%   Direction: 230°SW
Pressure: 29.8"   Gusts: NA
Location:  28.79°S, 67.53°W
Report Text: SANT 282200Z 23010KT 9999 FEW040TCU FEW050CB SCT100 26/22 Q1009
Loading
Personal Weather Stations






























Interactive Weather Map New forecast layout! Learn more

10-Day Weather Forecast

Advertisements
Track Severe Weather on mobile